Time;durP1;ratioP1;P1;durP2;ratioP2;P2;SDS_P1;SDS_P2;PMS_P1;PMS_P2;Temp;Humidity;BMP_temperature;BMP_pressure;BME280_temperature;BME280_humidity;BME280_pressure;Samples;Min_cycle;Max_cycle;Signal;HPM_P1;HPM_P2
2021/06/13 00:01:09;;;;;;;5.33;4.37;;;20.50;97.10;;;;;;5034076;28;20451;-75
2021/06/13 00:03:38;;;;;;;5.87;4.50;;;20.40;97.90;;;;;;5033612;28;20475;-75
2021/06/13 00:06:05;;;;;;;5.93;4.20;;;20.30;97.90;;;;;;5034126;28;20521;-75
2021/06/13 00:08:31;;;;;;;6.27;4.30;;;20.30;97.70;;;;;;5038716;28;20865;-75
2021/06/13 00:10:58;;;;;;;7.33;4.30;;;20.30;97.30;;;;;;5040060;28;20535;-75
2021/06/13 00:13:26;;;;;;;7.23;4.17;;;20.30;97.40;;;;;;5038393;28;21080;-75
2021/06/13 00:15:53;;;;;;;5.60;4.50;;;20.30;97.80;;;;;;5037765;28;20451;-75
2021/06/13 00:18:20;;;;;;;5.67;4.17;;;20.40;97.60;;;;;;5038461;28;20530;-75
2021/06/13 00:20:48;;;;;;;6.07;4.70;;;20.40;97.30;;;;;;5039317;28;20477;-74
2021/06/13 00:23:14;;;;;;;6.20;4.80;;;20.40;97.40;;;;;;5039357;28;20478;-75
2021/06/13 00:25:41;;;;;;;4.53;3.80;;;20.30;97.30;;;;;;5038048;28;20475;-75
2021/06/13 00:28:07;;;;;;;6.40;4.13;;;20.30;97.60;;;;;;5037403;28;20455;-75
2021/06/13 00:30:34;;;;;;;6.37;4.20;;;20.30;97.70;;;;;;5037486;28;20818;-75
2021/06/13 00:33:00;;;;;;;6.00;4.40;;;20.30;97.90;;;;;;5037017;28;20560;-75
2021/06/13 00:35:27;;;;;;;6.00;4.80;;;20.40;97.90;;;;;;5039031;28;20579;-75
2021/06/13 00:37:54;;;;;;;5.07;4.40;;;20.30;97.20;;;;;;5038128;28;20545;-75
2021/06/13 00:40:23;;;;;;;5.77;4.43;;;20.30;97.00;;;;;;5037819;28;20541;-75
2021/06/13 00:42:50;;;;;;;4.90;4.20;;;20.20;97.20;;;;;;5037382;28;20479;-75
2021/06/13 00:45:17;;;;;;;5.13;3.63;;;20.00;96.90;;;;;;5039495;28;20544;-75
2021/06/13 00:47:43;;;;;;;7.27;4.60;;;20.10;97.30;;;;;;5040134;28;20852;-76
2021/06/13 00:50:13;;;;;;;7.30;4.83;;;20.10;96.60;;;;;;5040793;28;20527;-75
2021/06/13 00:52:39;;;;;;;5.55;4.00;;;20.10;97.00;;;;;;5038799;28;20545;-75
2021/06/13 00:55:09;;;;;;;5.40;3.93;;;20.20;96.90;;;;;;5039696;28;20254;-75
2021/06/13 00:57:36;;;;;;;6.50;4.60;;;20.20;96.50;;;;;;5037437;28;20440;-76
2021/06/13 01:00:04;;;;;;;6.90;4.30;;;20.30;96.70;;;;;;5036963;28;20927;-75
2021/06/13 01:02:31;;;;;;;5.07;3.63;;;20.30;96.50;;;;;;5037243;28;20440;-76
2021/06/13 01:04:57;;;;;;;6.50;4.83;;;20.30;97.10;;;;;;5037340;28;20464;-75
2021/06/13 01:07:35;;;;;;;5.90;4.27;;;20.40;96.80;;;;;;5038674;28;20535;-75
2021/06/13 01:10:06;;;;;;;5.77;4.47;;;20.40;96.60;;;;;;5037913;28;20798;-75
2021/06/13 01:12:41;;;;;;;6.07;4.63;;;20.30;97.10;;;;;;5040294;28;20479;-76
2021/06/13 01:15:11;;;;;;;7.07;5.07;;;20.30;97.00;;;;;;5037763;28;20946;-76
2021/06/13 01:17:44;;;;;;;7.93;4.73;;;20.30;96.90;;;;;;5036738;28;20459;-76
2021/06/13 01:20:21;;;;;;;6.57;4.50;;;20.40;96.80;;;;;;5037035;28;20539;-75
2021/06/13 01:23:21;;;;;;;4.30;3.90;;;20.40;96.60;;;;;;5038482;28;20477;-76
2021/06/13 01:26:05;;;;;;;4.73;3.90;;;20.20;96.10;;;;;;4996023;28;20534;-76
2021/06/13 01:28:57;;;;;;;5.20;4.20;;;20.10;96.90;;;;;;5038823;28;20448;-76
2021/06/13 01:31:28;;;;;;;5.93;4.07;;;20.10;97.30;;;;;;5039691;28;20296;-75
2021/06/13 01:33:58;;;;;;;5.10;4.03;;;20.00;96.90;;;;;;5040058;28;20493;-76
2021/06/13 01:36:26;;;;;;;5.00;4.00;;;20.00;97.60;;;;;;5038555;28;20480;-76
2021/06/13 01:38:53;;;;;;;6.18;4.28;;;19.90;97.10;;;;;;5037622;28;20452;-75
2021/06/13 01:41:24;;;;;;;6.00;4.50;;;20.00;97.70;;;;;;5037415;28;20553;-75
2021/06/13 01:43:55;;;;;;;5.60;3.97;;;19.90;96.90;;;;;;5037695;28;20471;-75
2021/06/13 01:46:26;;;;;;;5.88;3.92;;;20.00;97.50;;;;;;5038767;28;20503;-75
2021/06/13 01:48:53;;;;;;;5.00;3.77;;;20.00;97.10;;;;;;5037325;28;20209;-75
2021/06/13 01:51:22;;;;;;;5.83;4.13;;;20.00;97.20;;;;;;5037017;28;20534;-75
2021/06/13 01:53:49;;;;;;;4.50;3.50;;;20.00;97.00;;;;;;5036831;28;20563;-76
2021/06/13 01:56:17;;;;;;;6.60;4.03;;;20.10;96.80;;;;;;5037978;28;20447;-76
2021/06/13 01:58:45;;;;;;;4.47;3.45;;;20.10;96.80;;;;;;5039008;28;20542;-75
2021/06/13 02:01:15;;;;;;;6.78;3.60;;;19.90;96.40;;;;;;5039427;28;20209;-75
2021/06/13 02:03:44;;;;;;;4.57;3.60;;;19.70;96.40;;;;;;5039431;28;20256;-75
2021/06/13 02:06:11;;;;;;;6.85;3.78;;;19.50;96.60;;;;;;5039151;28;20741;-75
2021/06/13 02:08:39;;;;;;;5.10;4.15;;;19.30;96.70;;;;;;5038243;28;20259;-75
2021/06/13 02:11:09;;;;;;;4.75;3.63;;;19.40;97.80;;;;;;5038581;28;20200;-75
2021/06/13 02:13:38;;;;;;;4.13;3.72;;;19.50;97.60;;;;;;5038672;28;20320;-75
2021/06/13 02:16:05;;;;;;;5.60;4.30;;;19.60;97.50;;;;;;5038366;28;20313;-75
2021/06/13 02:18:34;;;;;;;6.77;4.13;;;19.70;97.50;;;;;;5039080;28;20540;-76
2021/06/13 02:21:06;;;;;;;4.25;3.50;;;19.70;97.50;;;;;;5038191;28;20458;-75
2021/06/13 02:23:33;;;;;;;21.23;6.20;;;19.80;97.20;;;;;;5038005;28;20650;-75
2021/06/13 02:26:00;;;;;;;31.77;6.03;;;19.80;97.20;;;;;;5037888;28;20213;-75
2021/06/13 02:28:28;;;;;;;24.73;4.23;;;19.80;97.40;;;;;;5038640;28;20507;-75
2021/06/13 02:30:56;;;;;;;26.08;4.32;;;19.80;97.30;;;;;;5038088;28;20483;-75
2021/06/13 02:33:24;;;;;;;27.40;4.87;;;19.90;97.10;;;;;;5037962;28;20308;-75
2021/06/13 02:35:54;;;;;;;9.83;4.10;;;19.90;97.30;;;;;;5038994;28;20578;-75
2021/06/13 02:38:21;;;;;;;4.40;4.10;;;19.80;96.50;;;;;;5039170;28;20480;-75
2021/06/13 02:40:49;;;;;;;5.80;4.00;;;19.70;96.80;;;;;;5038633;28;20645;-75
2021/06/13 02:43:16;;;;;;;5.68;4.53;;;19.70;97.20;;;;;;5019455;28;20474;-75
2021/06/13 02:45:43;;;;;;;5.22;4.30;;;19.60;97.10;;;;;;5036549;28;20289;-75
2021/06/13 02:48:10;;;;;;;4.07;3.67;;;19.70;97.30;;;;;;5039131;28;20228;-75
2021/06/13 02:50:36;;;;;;;6.20;4.13;;;19.60;97.90;;;;;;5039050;28;20446;-75
2021/06/13 02:53:11;;;;;;;5.55;4.53;;;19.50;97.00;;;;;;5039407;28;20536;-75
2021/06/13 02:55:44;;;;;;;5.55;4.22;;;19.50;96.70;;;;;;5039042;28;20298;-75
2021/06/13 02:58:22;;;;;;;7.30;4.80;;;19.30;97.30;;;;;;5038080;28;20228;-75
2021/06/13 03:00:52;;;;;;;6.28;4.15;;;19.40;97.30;;;;;;5038854;28;20987;-75
2021/06/13 03:03:21;;;;;;;5.85;4.25;;;19.40;97.20;;;;;;5039159;28;20778;-75
2021/06/13 03:05:48;;;;;;;3.77;3.47;;;19.30;97.50;;;;;;5039115;28;20196;-75
2021/06/13 03:08:19;;;;;;;5.60;4.15;;;19.20;97.40;;;;;;5038816;28;20455;-75
2021/06/13 03:10:47;;;;;;;5.60;4.20;;;19.30;97.80;;;;;;5038740;28;20236;-74
2021/06/13 03:13:15;;;;;;;4.47;3.60;;;19.30;97.40;;;;;;5038777;28;20535;-75
2021/06/13 03:15:42;;;;;;;6.30;3.97;;;19.40;97.10;;;;;;5038327;28;20559;-75
2021/06/13 03:18:11;;;;;;;6.50;3.92;;;19.40;96.90;;;;;;5039410;28;20292;-75
2021/06/13 03:20:38;;;;;;;5.13;4.00;;;19.30;96.20;;;;;;5038997;28;20204;-75
2021/06/13 03:23:05;;;;;;;6.82;3.88;;;19.20;97.20;;;;;;5038255;28;20314;-75
2021/06/13 03:25:33;;;;;;;5.80;3.70;;;19.30;97.00;;;;;;5021581;28;20291;-75
2021/06/13 03:28:01;;;;;;;5.20;3.58;;;19.30;96.50;;;;;;5038949;28;20456;-75
2021/06/13 03:30:29;;;;;;;4.13;3.28;;;19.30;96.30;;;;;;5039028;28;20299;-74
2021/06/13 03:32:57;;;;;;;7.28;4.10;;;19.20;96.40;;;;;;5037932;28;20239;-74
2021/06/13 03:35:24;;;;;;;4.60;3.28;;;19.00;96.60;;;;;;5037689;28;20255;-75
2021/06/13 03:37:51;;;;;;;5.35;3.13;;;19.10;97.50;;;;;;5037388;28;20268;-75
2021/06/13 03:40:20;;;;;;;3.35;3.03;;;19.20;97.40;;;;;;5035616;28;20200;-74
2021/06/13 03:42:49;;;;;;;4.20;3.53;;;19.10;97.00;;;;;;5035248;28;20224;-74
2021/06/13 03:45:16;;;;;;;7.40;3.55;;;19.10;96.80;;;;;;5036097;28;20293;-75
2021/06/13 03:47:43;;;;;;;6.20;3.78;;;19.00;97.20;;;;;;5034483;28;20203;-74
2021/06/13 03:50:12;;;;;;;4.10;3.08;;;18.90;96.90;;;;;;5034932;28;20255;-74
2021/06/13 03:52:39;;;;;;;4.60;3.55;;;19.00;97.30;;;;;;5035897;28;20332;-75
2021/06/13 03:55:07;;;;;;;4.57;3.17;;;19.10;97.10;;;;;;5035315;28;20586;-75
2021/06/13 03:57:35;;;;;;;5.13;4.40;;;19.10;97.30;;;;;;5035390;28;20200;-75
2021/06/13 04:00:05;;;;;;;4.97;3.55;;;19.00;97.10;;;;;;5035248;28;20239;-74
2021/06/13 04:02:32;;;;;;;4.22;2.97;;;19.00;97.10;;;;;;5035326;28;20204;-74
2021/06/13 04:05:01;;;;;;;7.53;3.90;;;18.90;97.10;;;;;;5035390;28;20287;-75
2021/06/13 04:07:28;;;;;;;3.55;3.08;;;19.10;97.10;;;;;;5035088;28;20290;-75
2021/06/13 04:09:55;;;;;;;5.65;3.40;;;19.00;96.60;;;;;;5035257;28;20208;-75
2021/06/13 04:12:25;;;;;;;9.27;3.70;;;18.90;96.80;;;;;;5034759;28;20295;-74
2021/06/13 04:14:53;;;;;;;4.45;3.30;;;18.90;97.10;;;;;;5035487;28;20535;-75
2021/06/13 04:17:23;;;;;;;4.03;3.55;;;19.00;96.90;;;;;;5035609;28;20284;-74
2021/06/13 04:19:50;;;;;;;5.05;3.53;;;19.00;96.60;;;;;;5035903;28;20578;-74
2021/06/13 04:22:20;;;;;;;3.47;3.03;;;19.00;96.20;;;;;;5035440;28;20211;-75
2021/06/13 04:24:48;;;;;;;5.80;3.65;;;18.80;95.80;;;;;;5035166;28;20200;-75
2021/06/13 04:27:18;;;;;;;4.65;3.10;;;18.80;96.60;;;;;;5034578;28;20276;-75
2021/06/13 04:29:45;;;;;;;5.05;3.90;;;18.70;96.70;;;;;;5035342;28;20262;-74
2021/06/13 04:32:12;;;;;;;4.90;3.67;;;18.40;96.60;;;;;;5033933;28;20214;-75
2021/06/13 04:34:41;;;;;;;4.03;3.10;;;18.30;97.20;;;;;;5035460;28;20777;-75
2021/06/13 04:37:09;;;;;;;3.38;3.03;;;18.30;97.60;;;;;;5034799;28;20208;-75
2021/06/13 04:39:36;;;;;;;4.68;3.40;;;18.20;98.00;;;;;;5035461;28;20243;-75
2021/06/13 04:42:06;;;;;;;5.20;3.70;;;18.30;97.80;;;;;;5033753;28;20231;-75
2021/06/13 04:44:34;;;;;;;4.03;3.30;;;18.30;97.90;;;;;;5033935;28;20224;-74
2021/06/13 04:47:00;;;;;;;5.32;3.65;;;18.30;97.80;;;;;;5034976;28;20625;-74
2021/06/13 04:49:28;;;;;;;6.38;3.72;;;18.30;98.70;;;;;;5037296;28;20295;-75
2021/06/13 04:51:58;;;;;;;3.83;3.28;;;18.30;98.70;;;;;;5036168;28;20227;-74
2021/06/13 04:54:42;;;;;;;4.65;4.00;;;18.40;98.60;;;;;;5039622;28;20306;-75
2021/06/13 04:57:40;;;;;;;5.22;3.88;;;18.40;98.60;;;;;;5037050;28;20204;-74
2021/06/13 05:00:07;;;;;;;6.70;4.20;;;18.40;98.30;;;;;;5038732;28;20204;-74
2021/06/13 05:02:34;;;;;;;5.22;2.92;;;18.40;98.20;;;;;;5040031;28;20200;-74
2021/06/13 05:05:01;;;;;;;6.50;3.63;;;18.30;98.80;;;;;;5040660;28;20230;-74
2021/06/13 05:07:30;;;;;;;3.55;2.85;;;18.30;98.90;;;;;;5041082;28;20200;-75
2021/06/13 05:09:56;;;;;;;4.22;3.38;;;18.30;99.00;;;;;;5041282;28;20204;-74
2021/06/13 05:12:23;;;;;;;5.22;3.30;;;18.20;99.00;;;;;;5039506;28;20235;-74
2021/06/13 05:14:50;;;;;;;6.03;3.83;;;18.00;98.10;;;;;;5039004;28;20302;-75
2021/06/13 05:17:17;;;;;;;4.72;3.50;;;18.00;99.30;;;;;;5038340;28;20287;-74
2021/06/13 05:19:44;;;;;;;3.45;3.15;;;17.80;98.80;;;;;;5037584;28;20299;-74
2021/06/13 05:22:11;;;;;;;4.20;3.15;;;17.60;98.70;;;;;;5037724;28;20295;-74
2021/06/13 05:24:39;;;;;;;3.55;3.25;;;17.50;98.90;;;;;;5036693;28;20709;-74
2021/06/13 05:27:06;;;;;;;4.72;2.88;;;17.50;98.70;;;;;;5036854;28;20247;-74
2021/06/13 05:29:33;;;;;;;3.72;3.10;;;17.50;99.00;;;;;;5036626;28;20310;-74
2021/06/13 05:32:00;;;;;;;6.68;3.40;;;17.50;98.70;;;;;;5036506;28;20662;-74
2021/06/13 05:34:27;;;;;;;3.22;2.78;;;17.60;98.70;;;;;;5036886;28;20256;-74
2021/06/13 05:36:54;;;;;;;4.75;3.30;;;17.70;98.70;;;;;;5036890;28;20291;-74
2021/06/13 05:39:20;;;;;;;4.13;3.40;;;17.70;98.90;;;;;;5037461;28;20287;-75
2021/06/13 05:41:49;;;;;;;5.80;2.85;;;17.70;98.50;;;;;;5036472;28;20204;-74
2021/06/13 05:44:15;;;;;;;3.80;3.40;;;17.80;99.10;;;;;;5036962;28;20251;-74
2021/06/13 05:46:42;;;;;;;4.72;3.00;;;17.80;97.70;;;;;;5035966;28;20239;-74
2021/06/13 05:49:09;;;;;;;4.53;3.45;;;17.70;98.50;;;;;;5036525;28;20626;-74
2021/06/13 05:51:36;;;;;;;6.20;3.50;;;17.70;98.60;;;;;;5036025;28;20212;-74
2021/06/13 05:54:03;;;;;;;4.32;2.78;;;17.70;98.30;;;;;;5036622;28;20335;-74
2021/06/13 05:56:29;;;;;;;3.83;3.10;;;17.70;98.10;;;;;;5036212;28;20314;-74
2021/06/13 05:58:59;;;;;;;3.17;2.65;;;17.80;98.10;;;;;;5037234;28;20210;-74
2021/06/13 06:01:26;;;;;;;5.43;3.47;;;17.70;98.10;;;;;;5037366;28;20214;-74
2021/06/13 06:03:53;;;;;;;3.58;3.15;;;17.70;98.30;;;;;;5037322;28;20287;-75
2021/06/13 06:06:20;;;;;;;4.90;3.20;;;17.70;98.40;;;;;;5037861;28;20254;-74
2021/06/13 06:08:46;;;;;;;3.08;2.78;;;17.70;99.00;;;;;;5038208;28;20290;-75
2021/06/13 06:11:13;;;;;;;3.78;3.00;;;17.80;98.50;;;;;;5037502;28;20232;-74
2021/06/13 06:13:40;;;;;;;4.78;3.72;;;17.80;99.40;;;;;;5037872;28;20306;-74
2021/06/13 06:16:08;;;;;;;3.58;3.05;;;18.00;99.50;;;;;;5038147;28;20251;-75
2021/06/13 06:18:35;;;;;;;4.65;3.20;;;18.10;99.10;;;;;;5038037;28;20306;-75
2021/06/13 06:21:02;;;;;;;3.25;2.85;;;18.10;98.90;;;;;;5037600;28;20210;-74
2021/06/13 06:23:29;;;;;;;3.67;3.10;;;18.10;98.80;;;;;;5038157;28;20224;-75
2021/06/13 06:25:55;;;;;;;5.90;3.40;;;18.20;99.10;;;;;;5037747;28;20210;-74
2021/06/13 06:28:22;;;;;;;4.20;3.35;;;18.20;98.80;;;;;;5037989;28;20271;-75
2021/06/13 06:30:49;;;;;;;4.40;3.35;;;18.20;99.10;;;;;;5037521;28;20295;-74
2021/06/13 06:33:17;;;;;;;4.32;3.42;;;18.20;99.10;;;;;;5037453;28;20322;-74
2021/06/13 06:35:44;;;;;;;4.15;3.38;;;18.10;98.20;;;;;;5037158;28;20235;-75
2021/06/13 06:38:11;;;;;;;3.05;2.67;;;18.20;98.10;;;;;;5038090;28;20299;-75
2021/06/13 06:40:38;;;;;;;4.32;2.65;;;18.20;97.80;;;;;;5037238;28;20204;-75
2021/06/13 06:43:05;;;;;;;3.97;2.92;;;18.40;97.40;;;;;;5036793;28;20607;-75
2021/06/13 06:45:32;;;;;;;4.20;3.00;;;18.50;96.90;;;;;;5037577;28;20209;-74
2021/06/13 06:47:58;;;;;;;4.10;3.30;;;18.70;96.90;;;;;;5037892;28;20298;-74
2021/06/13 06:50:27;;;;;;;4.05;3.40;;;18.70;96.40;;;;;;5036527;28;20750;-74
2021/06/13 06:52:53;;;;;;;4.63;2.75;;;18.80;96.40;;;;;;5037104;28;20325;-74
2021/06/13 06:55:20;;;;;;;4.28;3.83;;;18.80;96.70;;;;;;5037166;28;20220;-75
2021/06/13 06:57:48;;;;;;;3.72;3.42;;;18.90;96.50;;;;;;5037224;28;20295;-75
2021/06/13 07:00:17;;;;;;;4.60;3.45;;;19.10;96.20;;;;;;5037207;28;20208;-74
2021/06/13 07:02:44;;;;;;;5.10;3.03;;;19.20;96.30;;;;;;5038100;28;20288;-75
2021/06/13 07:05:12;;;;;;;7.13;2.90;;;19.30;95.80;;;;;;5037515;28;20444;-75
2021/06/13 07:07:42;;;;;;;3.97;3.50;;;19.40;95.90;;;;;;5037044;28;20293;-74
2021/06/13 07:10:10;;;;;;;4.85;3.45;;;19.50;95.70;;;;;;5037303;28;20502;-74
2021/06/13 07:12:37;;;;;;;3.60;3.13;;;19.50;95.90;;;;;;5037978;28;20231;-75
2021/06/13 07:15:06;;;;;;;3.50;3.20;;;19.40;95.90;;;;;;5036839;28;20471;-75
2021/06/13 07:17:33;;;;;;;4.83;3.47;;;19.70;96.00;;;;;;5035855;28;20534;-75
2021/06/13 07:19:59;;;;;;;5.00;3.93;;;19.70;95.60;;;;;;5038747;28;20539;-74
2021/06/13 07:22:26;;;;;;;3.93;3.53;;;19.50;95.80;;;;;;5038088;28;20549;-75
2021/06/13 07:24:56;;;;;;;3.90;3.50;;;19.50;96.60;;;;;;5038590;28;20534;-74
2021/06/13 07:27:23;;;;;;;5.77;3.80;;;19.50;96.00;;;;;;5039190;28;20835;-75
2021/06/13 07:29:50;;;;;;;4.55;3.53;;;19.60;95.80;;;;;;5037259;28;20520;-73
2021/06/13 07:32:18;;;;;;;4.70;3.17;;;19.60;96.20;;;;;;5038331;28;20623;-75
2021/06/13 07:34:44;;;;;;;4.43;3.50;;;19.60;95.90;;;;;;5037469;28;20511;-75
2021/06/13 07:37:12;;;;;;;4.17;3.77;;;19.80;95.50;;;;;;5036180;28;20486;-75
2021/06/13 07:39:39;;;;;;;3.80;3.25;;;19.60;94.90;;;;;;5036072;28;20440;-75
2021/06/13 07:42:09;;;;;;;5.03;3.20;;;19.50;96.20;;;;;;5036182;28;20292;-74
2021/06/13 07:44:36;;;;;;;4.13;3.60;;;19.60;95.90;;;;;;5036106;28;20225;-75
2021/06/13 07:47:03;;;;;;;4.43;3.50;;;19.90;95.10;;;;;;5035998;28;20448;-75
2021/06/13 07:49:30;;;;;;;4.07;3.63;;;19.80;95.00;;;;;;5035849;28;20453;-75
2021/06/13 07:51:58;;;;;;;4.47;3.50;;;20.30;94.50;;;;;;5035301;28;20484;-75
2021/06/13 07:54:25;;;;;;;5.53;3.40;;;20.80;93.80;;;;;;5035249;28;20958;-75
2021/06/13 07:56:52;;;;;;;4.20;3.40;;;21.00;92.70;;;;;;5037500;28;20571;-75
2021/06/13 07:59:20;;;;;;;4.17;3.43;;;21.10;92.70;;;;;;5034692;28;20448;-75
2021/06/13 08:01:46;;;;;;;3.50;3.20;;;21.50;92.00;;;;;;5033746;28;20536;-75
2021/06/13 08:04:14;;;;;;;3.97;3.57;;;21.60;91.50;;;;;;5034622;28;21001;-75
2021/06/13 08:06:41;;;;;;;3.90;3.50;;;21.10;91.20;;;;;;5035657;28;20479;-75
2021/06/13 08:09:07;;;;;;;3.73;3.33;;;20.90;92.00;;;;;;5034876;28;20873;-75
2021/06/13 08:11:34;;;;;;;4.00;3.60;;;21.10;91.90;;;;;;5036106;28;20473;-75
2021/06/13 08:14:01;;;;;;;4.20;3.77;;;21.10;92.40;;;;;;5033637;28;20480;-75
2021/06/13 08:16:30;;;;;;;5.30;3.60;;;21.80;91.70;;;;;;5033692;28;20482;-75
2021/06/13 08:18:57;;;;;;;5.43;3.77;;;22.20;90.90;;;;;;5033544;28;20442;-75
2021/06/13 08:21:23;;;;;;;5.00;3.00;;;22.50;89.60;;;;;;5033418;28;20988;-75
2021/06/13 08:23:50;;;;;;;4.30;3.33;;;22.60;89.90;;;;;;5034688;28;20467;-75
2021/06/13 08:26:17;;;;;;;5.00;3.37;;;23.00;87.70;;;;;;5034672;28;20538;-75
2021/06/13 08:28:44;;;;;;;4.03;3.60;;;23.60;87.30;;;;;;5038299;28;21013;-75
2021/06/13 08:31:11;;;;;;;6.07;3.40;;;24.10;82.10;;;;;;5039735;28;20822;-75
2021/06/13 08:33:39;;;;;;;3.50;3.10;;;24.50;77.80;;;;;;5039287;28;20556;-75
2021/06/13 08:36:06;;;;;;;5.07;3.37;;;24.50;75.40;;;;;;5039404;28;20486;-75
2021/06/13 08:38:34;;;;;;;5.07;3.70;;;25.00;74.60;;;;;;5040344;28;20541;-75
2021/06/13 08:41:00;;;;;;;3.83;3.50;;;25.20;75.80;;;;;;5039831;28;20445;-75
2021/06/13 08:43:28;;;;;;;5.20;2.90;;;25.30;71.50;;;;;;5040338;28;20476;-75
2021/06/13 08:45:59;;;;;;;3.70;3.30;;;25.40;72.60;;;;;;5039657;28;20532;-75
2021/06/13 08:48:28;;;;;;;3.83;3.17;;;25.30;73.90;;;;;;5039556;28;20634;-75
2021/06/13 08:50:57;;;;;;;3.97;3.57;;;24.70;70.00;;;;;;5039178;28;20446;-74
2021/06/13 08:53:24;;;;;;;3.60;3.30;;;24.20;71.20;;;;;;5039361;28;20465;-75
2021/06/13 08:55:51;;;;;;;6.37;3.77;;;24.70;73.80;;;;;;5039435;28;20546;-75
2021/06/13 08:58:18;;;;;;;4.20;3.80;;;25.10;71.20;;;;;;5039570;28;20449;-75
2021/06/13 09:00:47;;;;;;;3.47;3.17;;;25.00;70.60;;;;;;5038750;28;20478;-75
2021/06/13 09:03:14;;;;;;;3.00;2.80;;;26.20;67.50;;;;;;5038991;28;20473;-75
2021/06/13 09:05:41;;;;;;;4.00;3.70;;;27.90;64.10;;;;;;5038904;28;20446;-76
2021/06/13 09:08:11;;;;;;;3.87;3.50;;;29.70;57.00;;;;;;5039142;28;20448;-76
2021/06/13 09:10:39;;;;;;;3.77;3.47;;;31.20;52.70;;;;;;5038892;28;20489;-76
2021/06/13 09:13:16;;;;;;;4.50;3.57;;;31.90;49.60;;;;;;5039164;28;20466;-75
2021/06/13 09:15:48;;;;;;;4.60;3.90;;;30.50;48.80;;;;;;5038709;28;20459;-76
2021/06/13 09:18:36;;;;;;;3.50;3.20;;;31.10;51.20;;;;;;5039058;28;20874;-76
2021/06/13 09:21:05;;;;;;;4.63;3.07;;;32.60;47.70;;;;;;5037885;28;20478;-75
2021/06/13 09:23:35;;;;;;;4.00;3.70;;;33.30;43.30;;;;;;5040778;28;20462;-75
2021/06/13 09:26:04;;;;;;;4.10;3.70;;;32.30;44.40;;;;;;5040266;28;20847;-76
2021/06/13 09:28:33;;;;;;;4.13;3.60;;;32.20;46.50;;;;;;5039199;28;20433;-75
2021/06/13 09:31:01;;;;;;;4.30;3.53;;;30.90;44.60;;;;;;5038771;28;20557;-76
2021/06/13 09:33:30;;;;;;;3.53;3.23;;;30.70;48.60;;;;;;5038778;28;20866;-75
2021/06/13 09:35:58;;;;;;;3.33;3.03;;;31.60;47.20;;;;;;5038578;28;21040;-76
2021/06/13 09:38:27;;;;;;;3.80;3.10;;;31.20;44.40;;;;;;5038191;28;20536;-76
2021/06/13 09:40:58;;;;;;;3.90;3.23;;;32.60;45.40;;;;;;5038536;28;20858;-75
2021/06/13 09:43:31;;;;;;;4.10;3.37;;;32.20;43.90;;;;;;5038475;28;20485;-76
2021/06/13 09:46:05;;;;;;;5.23;3.23;;;32.20;43.90;;;;;;5039133;28;20439;-75
2021/06/13 09:48:32;;;;;;;4.67;3.87;;;31.60;44.70;;;;;;5020837;28;20453;-75
2021/06/13 09:51:02;;;;;;;5.00;3.57;;;31.90;43.80;;;;;;5038292;28;20477;-75
2021/06/13 09:53:38;;;;;;;4.10;3.70;;;31.60;43.60;;;;;;5038736;28;20887;-76
2021/06/13 09:56:13;;;;;;;3.97;3.67;;;30.30;46.10;;;;;;5038738;28;20578;-75
2021/06/13 09:58:49;;;;;;;4.10;3.70;;;30.30;47.10;;;;;;5038362;28;20439;-76
2021/06/13 10:01:16;;;;;;;3.77;3.43;;;30.10;47.90;;;;;;5037986;28;20867;-75
2021/06/13 10:03:46;;;;;;;3.53;3.23;;;30.20;46.90;;;;;;5038294;28;20466;-76
2021/06/13 10:06:14;;;;;;;3.43;3.23;;;30.90;47.00;;;;;;5038465;28;20537;-76
2021/06/13 10:08:42;;;;;;;4.07;3.67;;;33.00;43.40;;;;;;5038547;28;20438;-75
2021/06/13 10:11:11;;;;;;;4.03;3.50;;;33.20;41.50;;;;;;5038383;28;20505;-75
2021/06/13 10:13:47;;;;;;;2.90;2.70;;;32.50;40.70;;;;;;5039003;28;20472;-75
2021/06/13 10:16:32;;;;;;;2.67;2.50;;;32.60;40.90;;;;;;5038810;28;20484;-75
2021/06/13 10:19:01;;;;;;;2.70;2.50;;;31.80;41.00;;;;;;5039243;28;20531;-76
2021/06/13 10:21:34;;;;;;;3.67;3.37;;;31.30;41.10;;;;;;5037736;28;20442;-75
2021/06/13 10:24:01;;;;;;;3.80;3.50;;;30.20;42.00;;;;;;5021307;28;20474;-75
2021/06/13 10:26:29;;;;;;;3.60;3.30;;;28.60;46.90;;;;;;5038200;28;20852;-76
2021/06/13 10:28:56;;;;;;;4.80;3.67;;;27.50;49.90;;;;;;5037282;28;20531;-75
2021/06/13 10:31:23;;;;;;;3.53;3.20;;;27.70;50.10;;;;;;5035581;28;20467;-75
2021/06/13 10:33:50;;;;;;;5.30;3.60;;;27.40;50.50;;;;;;5034926;28;20555;-75
2021/06/13 10:36:17;;;;;;;2.90;2.60;;;27.40;50.30;;;;;;5035664;28;20523;-75
2021/06/13 10:38:44;;;;;;;2.97;2.77;;;27.00;50.20;;;;;;5036845;28;20521;-75
2021/06/13 10:41:11;;;;;;;4.70;3.50;;;27.10;51.00;;;;;;5036189;28;20530;-75
2021/06/13 10:43:40;;;;;;;2.87;2.67;;;26.80;49.20;;;;;;5037750;28;20576;-75
2021/06/13 10:46:10;;;;;;;3.60;3.30;;;26.50;51.70;;;;;;5037220;28;20446;-75
2021/06/13 10:48:46;;;;;;;2.80;2.60;;;26.40;51.80;;;;;;5037601;28;20450;-75
2021/06/13 10:51:43;;;;;;;3.47;3.17;;;25.90;51.90;;;;;;5035895;28;20446;-75
2021/06/13 10:54:29;;;;;;;2.93;2.73;;;25.70;53.50;;;;;;4992872;28;21008;-75
2021/06/13 10:57:12;;;;;;;3.47;2.93;;;25.00;52.40;;;;;;5036747;28;21077;-75
2021/06/13 10:59:41;;;;;;;4.87;3.10;;;24.40;53.90;;;;;;5036057;28;20531;-75
2021/06/13 11:02:10;;;;;;;3.33;2.67;;;24.30;54.10;;;;;;5036775;28;20874;-75
2021/06/13 11:04:48;;;;;;;2.67;2.47;;;24.10;54.60;;;;;;5037212;28;20480;-75
2021/06/13 11:07:48;;;;;;;3.00;2.73;;;24.10;54.20;;;;;;5036391;28;20470;-74
2021/06/13 11:10:17;;;;;;;3.50;3.20;;;23.70;55.40;;;;;;5030213;28;20456;-74
2021/06/13 11:12:47;;;;;;;3.57;3.27;;;23.40;57.50;;;;;;5036819;28;20467;-75
2021/06/13 11:15:18;;;;;;;3.47;3.17;;;23.40;57.60;;;;;;5036874;28;20538;-75
2021/06/13 11:17:56;;;;;;;3.40;3.10;;;23.60;59.00;;;;;;5036363;28;20523;-75
2021/06/13 11:20:49;;;;;;;3.30;3.00;;;23.90;58.00;;;;;;5035906;28;20960;-74
2021/06/13 11:23:31;;;;;;;3.20;2.70;;;24.10;57.70;;;;;;5036313;28;20465;-75
2021/06/13 11:26:00;;;;;;;3.57;3.20;;;24.10;55.20;;;;;;5035560;28;20448;-75
2021/06/13 11:28:30;;;;;;;3.00;2.73;;;23.90;56.00;;;;;;5035856;28;20455;-75
2021/06/13 11:31:00;;;;;;;3.27;2.70;;;24.00;58.60;;;;;;5035449;28;20814;-75
2021/06/13 11:33:37;;;;;;;3.33;3.03;;;24.30;56.00;;;;;;5035560;28;20559;-75
2021/06/13 11:36:05;;;;;;;2.90;2.70;;;24.30;55.80;;;;;;5035290;28;20503;-75
2021/06/13 11:38:33;;;;;;;2.60;2.40;;;24.30;55.70;;;;;;5034937;28;20568;-75
2021/06/13 11:41:02;;;;;;;2.60;2.40;;;24.50;53.50;;;;;;5035713;28;20445;-75
2021/06/13 11:43:31;;;;;;;2.67;2.47;;;24.50;53.80;;;;;;5035398;28;20564;-74
2021/06/13 11:46:02;;;;;;;3.17;2.90;;;24.80;56.30;;;;;;5034256;28;20446;-74
2021/06/13 11:48:30;;;;;;;2.80;2.60;;;25.10;51.70;;;;;;5035023;28;20474;-74
2021/06/13 11:51:17;;;;;;;2.90;2.70;;;24.80;51.90;;;;;;5035014;28;20459;-74
2021/06/13 11:53:59;;;;;;;2.83;2.40;;;24.70;53.00;;;;;;5034307;28;20479;-74
2021/06/13 11:56:44;;;;;;;2.20;2.00;;;24.90;52.70;;;;;;5034954;28;20442;-75
2021/06/13 11:59:16;;;;;;;2.70;2.50;;;25.10;52.10;;;;;;5035426;28;20449;-74
2021/06/13 12:01:46;;;;;;;3.03;2.80;;;25.30;50.90;;;;;;5036055;28;20540;-74
2021/06/13 12:04:14;;;;;;;2.40;2.20;;;25.40;51.70;;;;;;5038502;28;20477;-74
2021/06/13 12:06:42;;;;;;;2.90;2.70;;;25.30;51.50;;;;;;5038018;28;20441;-74
2021/06/13 12:09:11;;;;;;;3.10;2.80;;;25.20;49.40;;;;;;5038624;28;20464;-74
2021/06/13 12:11:40;;;;;;;3.43;3.13;;;24.90;51.20;;;;;;5038926;28;20445;-73
2021/06/13 12:14:28;;;;;;;3.00;2.70;;;24.20;53.10;;;;;;5038990;28;20495;-74
2021/06/13 12:16:58;;;;;;;3.10;2.80;;;24.30;55.40;;;;;;5039175;28;20555;-74
2021/06/13 12:19:32;;;;;;;2.70;2.50;;;24.30;55.10;;;;;;5039142;28;20535;-74
2021/06/13 12:22:28;;;;;;;4.00;2.80;;;24.60;54.80;;;;;;5038994;28;20449;-74
2021/06/13 12:27:43;;;;;;;2.40;2.20;;;24.80;51.30;;;;;;5039575;28;20419;-74
2021/06/13 12:30:12;;;;;;;2.50;2.30;;;24.40;50.60;;;;;;5038360;28;20927;-73
2021/06/13 12:32:42;;;;;;;2.47;2.27;;;24.10;51.30;;;;;;5038439;28;20842;-74
2021/06/13 12:35:11;;;;;;;3.00;2.80;;;24.20;52.50;;;;;;5039124;28;20449;-74
2021/06/13 12:37:40;;;;;;;2.47;2.10;;;24.50;51.50;;;;;;5038731;28;20568;-74
2021/06/13 12:40:10;;;;;;;2.53;2.33;;;24.60;50.80;;;;;;5038315;28;20850;-74
2021/06/13 12:42:38;;;;;;;2.87;2.57;;;24.30;48.90;;;;;;5038898;28;20451;-74
2021/06/13 12:45:09;;;;;;;3.00;2.70;;;24.20;49.40;;;;;;5038329;28;21038;-75
2021/06/13 12:47:37;;;;;;;3.10;2.80;;;24.50;49.20;;;;;;5038741;28;20440;-74
2021/06/13 12:50:07;;;;;;;2.73;2.53;;;24.80;51.40;;;;;;5038397;28;20453;-73
2021/06/13 12:52:37;;;;;;;3.30;2.53;;;25.10;50.90;;;;;;5038730;28;20852;-74
2021/06/13 12:55:06;;;;;;;4.40;3.00;;;25.50;51.40;;;;;;5038640;28;20450;-74
2021/06/13 12:57:34;;;;;;;3.30;3.00;;;25.70;52.70;;;;;;5038870;28;20482;-74
2021/06/13 13:00:02;;;;;;;3.53;3.17;;;25.90;53.20;;;;;;5038178;28;20809;-74